Time;durP1;ratioP1;P1;durP2;ratioP2;P2;SDS_P1;SDS_P2;PMS_P1;PMS_P2;Temp;Humidity;BMP_temperature;BMP_pressure;BME280_temperature;BME280_humidity;BME280_pressure;Samples;Min_cycle;Max_cycle;Signal;HPM_P1;HPM_P2
2023/05/05 00:01:11;;;;;;;3.63;2.15;;;15.80;90.20;;;;;;5019993;28;20029;-66
2023/05/05 00:03:37;;;;;;;8.25;3.08;;;15.60;90.50;;;;;;5021062;28;20132;-64
2023/05/05 00:06:04;;;;;;;3.88;2.00;;;15.60;90.40;;;;;;5022536;28;20101;-63
2023/05/05 00:08:30;;;;;;;5.78;2.38;;;15.50;90.40;;;;;;4998209;28;20049;-63
2023/05/05 00:10:56;;;;;;;5.03;2.70;;;15.50;90.90;;;;;;5022373;28;20056;-62
2023/05/05 00:13:22;;;;;;;7.05;2.30;;;15.40;91.60;;;;;;5021598;28;20100;-66
2023/05/05 00:15:50;;;;;;;3.58;2.88;;;15.30;91.40;;;;;;5024481;28;20025;-64
2023/05/05 00:18:17;;;;;;;3.17;2.67;;;15.30;92.50;;;;;;5005447;28;20038;-65
2023/05/05 00:20:43;;;;;;;3.58;2.25;;;15.30;92.50;;;;;;5029280;28;20121;-65
2023/05/05 00:23:09;;;;;;;5.22;2.10;;;15.20;92.30;;;;;;5022242;28;20025;-65
2023/05/05 00:25:35;;;;;;;3.85;2.28;;;15.20;92.10;;;;;;5020547;28;20510;-63
2023/05/05 00:28:00;;;;;;;3.58;2.50;;;15.20;92.20;;;;;;5019624;28;20143;-64
2023/05/05 00:30:26;;;;;;;5.28;2.75;;;15.20;92.40;;;;;;5023409;28;20032;-64
2023/05/05 00:32:53;;;;;;;9.45;2.88;;;15.10;92.50;;;;;;5025582;28;20052;-63
2023/05/05 00:35:18;;;;;;;4.05;2.00;;;15.10;92.30;;;;;;5008963;28;20045;-63
2023/05/05 00:37:44;;;;;;;4.60;2.40;;;15.10;92.20;;;;;;5024686;28;20095;-62
2023/05/05 00:40:10;;;;;;;5.30;2.85;;;15.10;92.20;;;;;;5023290;28;20030;-65
2023/05/05 00:42:46;;;;;;;4.35;2.33;;;15.10;92.70;;;;;;5025143;28;20025;-64
2023/05/05 00:45:15;;;;;;;2.95;1.98;;;15.10;92.60;;;;;;5026174;28;20033;-66
2023/05/05 00:47:48;;;;;;;3.65;2.58;;;15.00;93.20;;;;;;5025411;28;20096;-63
2023/05/05 00:50:28;;;;;;;5.28;2.08;;;15.00;93.00;;;;;;5030552;28;20053;-66
2023/05/05 00:53:04;;;;;;;5.03;2.35;;;14.90;92.90;;;;;;5028489;28;20459;-65
2023/05/05 00:55:32;;;;;;;3.38;2.28;;;14.80;93.50;;;;;;5025346;28;20120;-65
2023/05/05 00:57:59;;;;;;;5.22;2.42;;;14.80;93.50;;;;;;5026852;28;20037;-63
2023/05/05 01:00:25;;;;;;;10.18;2.65;;;14.70;93.50;;;;;;5022738;28;20029;-64
2023/05/05 01:02:51;;;;;;;6.85;2.50;;;14.80;92.60;;;;;;5032043;28;20030;-63
2023/05/05 01:05:18;;;;;;;4.75;2.38;;;14.70;93.10;;;;;;5023357;28;20478;-65
2023/05/05 01:08:05;;;;;;;5.55;2.60;;;14.70;93.00;;;;;;5027613;28;20368;-64
2023/05/05 01:10:56;;;;;;;4.30;2.03;;;14.60;94.20;;;;;;5021870;28;20029;-65
2023/05/05 01:13:31;;;;;;;3.90;2.30;;;14.60;93.50;;;;;;5026428;28;20041;-65
2023/05/05 01:16:11;;;;;;;4.50;2.67;;;14.60;93.80;;;;;;5018165;28;20033;-65
2023/05/05 01:18:43;;;;;;;7.97;2.75;;;14.60;94.10;;;;;;5024980;28;20300;-63
2023/05/05 01:21:13;;;;;;;6.85;2.50;;;14.60;94.10;;;;;;5026541;28;20032;-66
2023/05/05 01:23:45;;;;;;;3.25;2.00;;;14.60;95.10;;;;;;5025151;28;20021;-65
2023/05/05 01:26:29;;;;;;;4.45;1.98;;;14.60;94.80;;;;;;5027064;28;20022;-64
2023/05/05 01:28:54;;;;;;;;;;;14.60;94.80;;;;;;5008772;28;20025;-65
2023/05/05 01:31:52;;;;;;;4.70;2.42;;;14.70;95.00;;;;;;5025434;28;19916;-66
2023/05/05 01:34:31;;;;;;;4.00;2.65;;;14.60;95.50;;;;;;5008514;28;20051;-64
2023/05/05 01:37:03;;;;;;;8.00;2.58;;;14.60;95.70;;;;;;5008334;28;20030;-64
2023/05/05 01:39:32;;;;;;;4.60;2.75;;;14.60;96.00;;;;;;5021552;28;20036;-65
2023/05/05 01:42:04;;;;;;;4.63;2.22;;;14.50;96.30;;;;;;5024925;28;20614;-64
2023/05/05 01:44:33;;;;;;;7.38;2.15;;;14.50;96.10;;;;;;5018597;28;20025;-66
2023/05/05 01:47:01;;;;;;;4.70;2.53;;;14.40;95.40;;;;;;5008043;28;20395;-64
2023/05/05 01:49:27;;;;;;;5.53;2.58;;;14.40;96.70;;;;;;5027101;28;20033;-65
2023/05/05 01:51:55;;;;;;;2.92;2.17;;;14.30;96.70;;;;;;5023503;28;20033;-66
2023/05/05 01:54:23;;;;;;;5.07;2.05;;;14.30;97.00;;;;;;5024419;28;20053;-65
2023/05/05 01:56:49;;;;;;;3.13;2.55;;;14.20;97.60;;;;;;5027572;28;20112;-66
2023/05/05 01:59:16;;;;;;;5.55;2.67;;;14.20;97.30;;;;;;5021891;28;20030;-66
2023/05/05 02:01:44;;;;;;;5.50;2.40;;;14.20;96.30;;;;;;5020470;28;20410;-65
2023/05/05 02:04:13;;;;;;;3.30;2.00;;;14.20;96.80;;;;;;5020559;28;20030;-65
2023/05/05 02:06:39;;;;;;;5.03;2.00;;;14.10;96.90;;;;;;5021665;28;20025;-65
2023/05/05 02:09:10;;;;;;;3.75;2.55;;;14.10;96.90;;;;;;5020084;28;20030;-64
2023/05/05 02:11:37;;;;;;;4.07;2.30;;;14.00;97.40;;;;;;5019086;28;20041;-64
2023/05/05 02:14:05;;;;;;;4.00;2.40;;;13.90;97.90;;;;;;5037952;23;20049;-64
2023/05/05 02:16:32;;;;;;;5.45;2.53;;;13.90;98.00;;;;;;5020836;28;20029;-65
2023/05/05 02:19:03;;;;;;;5.05;2.47;;;13.80;98.40;;;;;;5018876;28;20026;-65
2023/05/05 02:21:30;;;;;;;4.57;2.85;;;13.80;97.70;;;;;;5019532;28;20025;-65
2023/05/05 02:23:56;;;;;;;10.98;2.25;;;13.80;98.40;;;;;;4998774;28;20509;-66
2023/05/05 02:26:23;;;;;;;4.63;2.58;;;13.70;98.60;;;;;;5021162;28;20132;-66
2023/05/05 02:29:01;;;;;;;3.38;2.42;;;13.60;99.10;;;;;;5021133;28;20436;-65
2023/05/05 02:31:28;;;;;;;3.72;2.40;;;13.60;99.30;;;;;;5027336;28;20121;-66
2023/05/05 02:33:56;;;;;;;3.47;2.72;;;13.50;99.90;;;;;;5016249;28;20049;-65
2023/05/05 02:36:26;;;;;;;11.20;2.80;;;13.40;99.90;;;;;;5029500;28;20445;-65
2023/05/05 02:38:57;;;;;;;8.70;2.50;;;13.40;99.90;;;;;;5026671;28;20487;-65
2023/05/05 02:41:25;;;;;;;6.95;3.10;;;13.40;99.90;;;;;;5028691;28;20055;-65
2023/05/05 02:43:53;;;;;;;3.47;2.65;;;13.40;99.90;;;;;;5021988;28;20529;-65
2023/05/05 02:46:19;;;;;;;7.82;2.92;;;13.40;99.90;;;;;;5021451;28;20030;-65
2023/05/05 02:48:45;;;;;;;6.50;3.60;;;13.30;99.90;;;;;;5029120;28;20817;-65
2023/05/05 02:51:10;;;;;;;4.82;3.22;;;13.30;99.90;;;;;;5031818;28;20551;-67
2023/05/05 02:53:36;;;;;;;4.63;2.35;;;13.30;99.90;;;;;;5031756;28;20037;-65
2023/05/05 02:56:25;;;;;;;4.03;2.58;;;13.20;99.90;;;;;;5034941;28;20028;-65
2023/05/05 02:58:55;;;;;;;4.88;3.03;;;13.30;99.90;;;;;;5032554;28;20025;-65
2023/05/05 03:01:39;;;;;;;6.38;2.70;;;13.30;99.90;;;;;;5031815;28;20450;-65
2023/05/05 03:04:14;;;;;;;3.42;2.28;;;13.30;99.90;;;;;;5028515;28;20075;-66
2023/05/05 03:06:42;;;;;;;5.32;2.90;;;13.20;99.90;;;;;;5030279;28;20086;-65
2023/05/05 03:09:14;;;;;;;5.97;3.83;;;13.20;99.90;;;;;;5012620;28;20371;-65
2023/05/05 03:11:49;;;;;;;4.97;3.33;;;13.20;99.90;;;;;;5029367;28;20017;-65
2023/05/05 03:14:20;;;;;;;5.32;3.22;;;13.20;99.90;;;;;;5023775;28;20033;-65
2023/05/05 03:16:48;;;;;;;5.18;3.58;;;13.10;99.90;;;;;;5026054;28;20029;-65
2023/05/05 03:19:17;;;;;;;5.03;2.88;;;13.00;99.90;;;;;;5013237;28;20021;-65
2023/05/05 03:21:43;;;;;;;8.32;3.50;;;13.00;99.90;;;;;;5024102;28;20112;-65
2023/05/05 03:24:17;;;;;;;6.28;3.25;;;12.90;99.90;;;;;;5024987;28;20543;-65
2023/05/05 03:26:44;;;;;;;7.43;4.55;;;12.80;99.90;;;;;;5020226;28;20108;-65
2023/05/05 03:29:10;;;;;;;5.95;4.03;;;12.70;99.90;;;;;;5027624;28;20040;-64
2023/05/05 03:31:35;;;;;;;8.38;3.40;;;12.70;99.90;;;;;;5025611;28;20029;-65
2023/05/05 03:34:01;;;;;;;4.35;3.17;;;12.60;99.90;;;;;;5007231;28;20042;-65
2023/05/05 03:36:27;;;;;;;5.82;3.60;;;12.60;99.90;;;;;;5023895;28;20031;-66
2023/05/05 03:38:53;;;;;;;6.38;3.35;;;12.60;99.90;;;;;;5028825;28;20068;-64
2023/05/05 03:41:20;;;;;;;11.57;3.60;;;12.50;99.90;;;;;;5026223;28;20025;-65
2023/05/05 03:43:46;;;;;;;6.50;3.58;;;12.50;99.90;;;;;;5036484;28;20494;-65
2023/05/05 03:46:11;;;;;;;5.15;2.88;;;12.50;99.90;;;;;;5014367;28;20037;-65
2023/05/05 03:48:37;;;;;;;6.43;3.45;;;12.50;99.90;;;;;;5034321;28;20028;-65
2023/05/05 03:51:02;;;;;;;4.65;3.20;;;12.50;99.90;;;;;;5026937;28;20029;-65
2023/05/05 03:53:28;;;;;;;5.70;3.28;;;12.60;99.90;;;;;;5026910;28;20411;-65
2023/05/05 03:55:53;;;;;;;7.85;3.75;;;12.50;99.90;;;;;;5022476;28;20135;-65
2023/05/05 03:58:19;;;;;;;6.72;3.67;;;12.50;99.90;;;;;;5023002;28;20108;-65
2023/05/05 04:00:45;;;;;;;7.30;4.00;;;12.60;99.90;;;;;;5023164;28;20503;-65
2023/05/05 04:03:10;;;;;;;5.05;3.25;;;12.50;99.90;;;;;;5026174;28;20499;-65
2023/05/05 04:05:37;;;;;;;6.70;3.75;;;12.50;99.90;;;;;;5023973;28;20122;-64
2023/05/05 04:08:02;;;;;;;8.75;4.07;;;12.40;99.90;;;;;;5016173;28;20030;-64
2023/05/05 04:10:28;;;;;;;8.02;3.80;;;12.40;99.90;;;;;;5028392;28;20043;-66
2023/05/05 04:12:54;;;;;;;7.93;4.20;;;12.40;99.90;;;;;;5023418;28;20116;-65
2023/05/05 04:15:20;;;;;;;8.00;3.92;;;12.40;99.90;;;;;;5022795;28;20153;-65
2023/05/05 04:17:46;;;;;;;5.63;3.65;;;12.40;99.90;;;;;;5026213;28;20045;-65
2023/05/05 04:20:12;;;;;;;8.40;3.72;;;12.50;99.90;;;;;;5027708;28;20087;-65
2023/05/05 04:22:37;;;;;;;8.00;3.28;;;12.50;99.90;;;;;;5025003;28;20450;-65
2023/05/05 04:25:03;;;;;;;4.68;3.45;;;12.60;99.90;;;;;;5027676;28;20025;-65
2023/05/05 04:27:29;;;;;;;9.02;3.88;;;12.70;99.90;;;;;;5025743;28;21541;-65
2023/05/05 04:29:55;;;;;;;5.63;3.63;;;12.80;99.90;;;;;;5024674;28;20037;-64
2023/05/05 04:32:21;;;;;;;5.75;3.42;;;12.90;99.90;;;;;;5026197;28;20025;-65
2023/05/05 04:34:47;;;;;;;7.18;3.70;;;13.00;99.90;;;;;;5003955;28;20107;-65
2023/05/05 04:37:12;;;;;;;5.40;3.83;;;13.10;99.90;;;;;;5027151;28;20629;-64
2023/05/05 04:39:38;;;;;;;4.90;3.10;;;13.20;99.90;;;;;;5025919;28;20018;-65
2023/05/05 04:42:03;;;;;;;10.10;3.28;;;13.30;99.90;;;;;;5027635;28;20399;-65
2023/05/05 04:44:29;;;;;;;4.40;2.88;;;13.50;99.90;;;;;;5022080;28;20033;-65
2023/05/05 04:46:55;;;;;;;6.18;3.58;;;13.60;99.90;;;;;;5025897;28;20048;-65
2023/05/05 04:49:20;;;;;;;7.47;3.42;;;13.70;99.90;;;;;;5015624;28;20021;-65
2023/05/05 04:51:46;;;;;;;6.10;3.33;;;13.80;99.90;;;;;;5029129;28;20478;-65
2023/05/05 04:54:12;;;;;;;5.43;3.60;;;13.90;99.90;;;;;;5030948;28;20033;-65
2023/05/05 04:56:37;;;;;;;7.43;4.10;;;14.00;99.90;;;;;;5029856;28;20021;-65
2023/05/05 04:59:03;;;;;;;6.28;3.42;;;14.10;99.90;;;;;;5029755;28;20022;-65
2023/05/05 05:01:28;;;;;;;7.10;3.08;;;14.30;99.90;;;;;;5029514;28;20170;-65
2023/05/05 05:03:54;;;;;;;5.45;3.67;;;14.50;99.90;;;;;;5026836;28;20025;-64
2023/05/05 05:06:20;;;;;;;6.10;3.42;;;14.80;99.90;;;;;;5029057;28;20569;-66
2023/05/05 05:08:45;;;;;;;6.32;3.05;;;15.20;99.90;;;;;;5025733;28;20176;-66
2023/05/05 05:11:11;;;;;;;5.85;3.45;;;15.70;99.90;;;;;;5028329;28;20030;-65
2023/05/05 05:13:36;;;;;;;4.85;3.03;;;16.10;99.90;;;;;;5027297;28;20120;-65
2023/05/05 05:16:02;;;;;;;3.95;3.50;;;16.30;99.90;;;;;;5024056;28;20131;-65
2023/05/05 05:18:28;;;;;;;4.88;3.33;;;16.70;99.90;;;;;;5027535;28;20140;-66
2023/05/05 05:20:53;;;;;;;5.93;4.25;;;17.10;99.90;;;;;;5021227;28;20021;-65
2023/05/05 05:23:19;;;;;;;4.45;3.30;;;17.60;99.90;;;;;;5032839;28;20371;-65
2023/05/05 05:25:45;;;;;;;8.10;3.70;;;18.10;99.30;;;;;;5027477;28;20018;-64
2023/05/05 05:28:10;;;;;;;6.15;3.95;;;18.60;97.80;;;;;;5034404;28;20072;-66
2023/05/05 05:30:36;;;;;;;8.68;4.50;;;19.00;97.80;;;;;;5026987;28;20116;-65
2023/05/05 05:33:02;;;;;;;6.80;5.60;;;19.50;96.30;;;;;;5023819;28;20475;-65
2023/05/05 05:35:27;;;;;;;7.93;3.35;;;19.70;95.10;;;;;;4998465;28;20060;-63
2023/05/05 05:37:53;;;;;;;4.32;3.28;;;19.80;94.60;;;;;;5025128;28;20040;-63
2023/05/05 05:40:18;;;;;;;13.63;4.13;;;19.60;95.70;;;;;;5023331;28;20018;-66
2023/05/05 05:42:44;;;;;;;6.97;3.85;;;19.30;96.40;;;;;;5009802;28;20041;-65
2023/05/05 05:45:10;;;;;;;9.23;3.70;;;19.20;95.80;;;;;;5009728;28;20048;-66
2023/05/05 05:47:35;;;;;;;10.07;3.28;;;19.40;96.30;;;;;;5002943;28;20233;-66
2023/05/05 05:50:03;;;;;;;9.63;3.88;;;19.40;96.10;;;;;;5031303;28;20419;-65
2023/05/05 05:52:29;;;;;;;7.53;3.47;;;19.20;96.00;;;;;;5023010;28;20387;-66
2023/05/05 05:54:55;;;;;;;5.20;3.45;;;19.20;95.90;;;;;;5025765;28;20075;-66
2023/05/05 05:57:22;;;;;;;8.43;3.15;;;19.40;96.20;;;;;;5026720;28;20026;-64
2023/05/05 05:59:48;;;;;;;5.72;3.20;;;19.80;96.10;;;;;;5025902;28;20026;-65
2023/05/05 06:02:13;;;;;;;7.15;3.47;;;20.40;95.10;;;;;;5022085;28;20438;-65
2023/05/05 06:04:39;;;;;;;5.95;3.63;;;20.30;94.80;;;;;;5024296;28;20061;-66
2023/05/05 06:07:05;;;;;;;9.02;2.70;;;20.30;94.50;;;;;;5028646;28;20037;-66
2023/05/05 06:09:30;;;;;;;4.30;3.22;;;20.10;94.70;;;;;;5012962;28;20033;-66
2023/05/05 06:11:56;;;;;;;5.72;3.03;;;20.20;93.40;;;;;;5017697;28;20042;-65
2023/05/05 06:14:21;;;;;;;5.20;3.25;;;20.40;93.00;;;;;;5016913;28;20107;-66
2023/05/05 06:16:47;;;;;;;8.70;3.55;;;20.90;93.50;;;;;;5027264;28;20112;-65
2023/05/05 06:19:13;;;;;;;5.93;3.10;;;21.50;92.20;;;;;;5006904;28;20022;-66
2023/05/05 06:21:38;;;;;;;4.13;3.08;;;21.60;92.40;;;;;;5023890;28;20124;-66
2023/05/05 06:24:04;;;;;;;5.35;2.97;;;22.40;90.60;;;;;;5025892;28;20430;-66
2023/05/05 06:26:30;;;;;;;3.88;2.72;;;21.70;91.40;;;;;;5013330;28;20053;-66
2023/05/05 06:28:56;;;;;;;4.95;3.00;;;22.00;91.90;;;;;;5030042;28;20036;-66
2023/05/05 06:31:21;;;;;;;5.90;3.35;;;22.00;91.40;;;;;;5025598;28;20514;-66
2023/05/05 06:33:47;;;;;;;6.38;3.35;;;21.80;91.40;;;;;;5012754;28;20118;-65
2023/05/05 06:36:12;;;;;;;5.28;3.25;;;21.40;91.70;;;;;;5030951;28;20036;-65
2023/05/05 06:38:38;;;;;;;4.93;3.53;;;21.20;92.40;;;;;;5028726;28;20386;-66
2023/05/05 06:41:03;;;;;;;6.03;3.60;;;21.10;92.80;;;;;;5029186;28;20104;-65
2023/05/05 06:43:29;;;;;;;5.05;3.47;;;21.20;93.70;;;;;;5026588;28;20513;-66
2023/05/05 06:45:55;;;;;;;6.85;3.65;;;21.20;93.10;;;;;;5025250;28;20036;-65
2023/05/05 06:48:21;;;;;;;8.05;3.85;;;21.50;93.30;;;;;;5030487;28;20033;-65
2023/05/05 06:50:46;;;;;;;6.30;3.78;;;21.60;93.50;;;;;;5013141;28;20103;-66
2023/05/05 06:53:12;;;;;;;9.27;4.10;;;21.90;93.60;;;;;;5029270;28;20569;-66
2023/05/05 06:55:37;;;;;;;5.53;4.30;;;21.90;93.50;;;;;;5038172;28;20025;-66
2023/05/05 06:58:03;;;;;;;7.38;4.40;;;22.10;94.00;;;;;;5033926;28;20057;-66
2023/05/05 07:00:28;;;;;;;7.70;4.75;;;22.30;93.60;;;;;;5016766;28;20029;-65
2023/05/05 07:02:54;;;;;;;6.55;3.65;;;22.50;93.00;;;;;;5029078;28;20056;-62
2023/05/05 07:05:20;;;;;;;9.85;4.45;;;23.40;93.20;;;;;;5035382;28;20075;-66
2023/05/05 07:07:52;;;;;;;5.47;4.53;;;23.70;92.00;;;;;;5019593;28;20037;-65
2023/05/05 07:10:18;;;;;;;6.88;5.10;;;23.60;91.30;;;;;;5030311;28;20495;-66
2023/05/05 07:12:45;;;;;;;9.60;4.68;;;23.30;92.40;;;;;;5027340;28;20048;-65
2023/05/05 07:15:10;;;;;;;6.13;4.70;;;23.40;92.40;;;;;;5023222;28;20644;-66
2023/05/05 07:17:36;;;;;;;7.07;5.35;;;23.60;92.00;;;;;;5011552;28;20079;-66
2023/05/05 07:20:02;;;;;;;6.70;4.65;;;23.60;91.70;;;;;;5029052;28;20025;-63
2023/05/05 07:22:27;;;;;;;6.38;4.82;;;23.50;91.90;;;;;;5031252;28;20021;-65
2023/05/05 07:24:53;;;;;;;6.97;5.10;;;23.30;92.50;;;;;;5030871;28;20052;-65
2023/05/05 07:27:22;;;;;;;10.80;4.93;;;23.50;92.20;;;;;;5030387;28;20044;-65
2023/05/05 07:29:47;;;;;;;10.90;5.63;;;23.60;92.20;;;;;;5032350;28;20048;-66
2023/05/05 07:32:13;;;;;;;11.75;5.55;;;23.70;92.00;;;;;;5027471;28;20666;-65
2023/05/05 07:34:39;;;;;;;8.68;5.40;;;23.80;91.80;;;;;;5002758;28;20111;-65
2023/05/05 07:37:05;;;;;;;7.65;5.32;;;23.70;91.70;;;;;;5032503;28;20040;-65
2023/05/05 07:39:32;;;;;;;6.80;5.53;;;23.40;92.30;;;;;;5037643;28;20132;-65
2023/05/05 07:41:57;;;;;;;9.38;6.25;;;23.90;92.00;;;;;;5033699;28;20410;-65
2023/05/05 07:44:23;;;;;;;12.80;5.50;;;24.10;92.20;;;;;;5024785;28;20029;-65
2023/05/05 07:46:49;;;;;;;6.40;4.82;;;24.30;91.20;;;;;;5028329;28;20029;-66
2023/05/05 07:49:15;;;;;;;12.82;5.15;;;24.20;91.30;;;;;;5025152;28;20022;-63
2023/05/05 07:51:41;;;;;;;11.35;5.15;;;24.20;91.80;;;;;;5028944;28;20029;-66
2023/05/05 07:54:07;;;;;;;7.72;5.40;;;24.10;91.50;;;;;;5026160;28;20727;-65
2023/05/05 07:56:33;;;;;;;13.35;5.25;;;24.20;91.30;;;;;;5003619;28;20046;-63
2023/05/05 07:58:58;;;;;;;9.32;5.95;;;24.50;90.70;;;;;;5036561;28;20045;-64
2023/05/05 08:01:24;;;;;;;10.80;5.25;;;24.90;90.60;;;;;;5027193;28;20036;-66
2023/05/05 08:03:50;;;;;;;9.95;5.82;;;25.30;90.60;;;;;;5033051;28;20020;-66
2023/05/05 08:06:20;;;;;;;8.25;5.35;;;25.20;90.00;;;;;;5027852;28;20030;-66
2023/05/05 08:08:50;;;;;;;8.55;5.18;;;25.10;90.00;;;;;;5033101;28;20224;-65
2023/05/05 08:11:15;;;;;;;9.32;5.30;;;25.60;89.60;;;;;;5012652;28;20542;-66
2023/05/05 08:13:44;;;;;;;10.43;5.07;;;26.60;86.00;;;;;;5028180;28;20030;-65
2023/05/05 08:16:11;;;;;;;9.70;5.82;;;25.90;85.40;;;;;;5025501;28;20505;-65
2023/05/05 08:18:37;;;;;;;9.35;4.95;;;25.10;87.80;;;;;;5046765;23;20102;-69
2023/05/05 08:21:07;;;;;;;6.85;5.18;;;25.00;90.10;;;;;;5023866;28;20013;-68
2023/05/05 08:23:34;;;;;;;7.60;5.28;;;25.00;89.00;;;;;;5028676;28;20105;-68
2023/05/05 08:26:01;;;;;;;9.30;4.78;;;25.40;87.70;;;;;;5011159;28;20029;-68
2023/05/05 08:28:26;;;;;;;9.70;4.78;;;26.20;88.10;;;;;;5023373;28;20104;-65
2023/05/05 08:30:52;;;;;;;9.43;5.25;;;26.90;86.20;;;;;;5025533;28;20201;-67
2023/05/05 08:33:17;;;;;;;11.13;4.80;;;26.90;84.50;;;;;;5029831;28;20037;-68
2023/05/05 08:35:43;;;;;;;9.05;4.93;;;26.90;83.40;;;;;;5011958;28;20055;-68
2023/05/05 08:38:10;;;;;;;9.82;4.80;;;26.80;82.80;;;;;;5028528;28;20446;-69
2023/05/05 08:40:38;;;;;;;15.20;5.60;;;26.60;82.60;;;;;;5026477;28;20033;-67
2023/05/05 08:43:04;;;;;;;9.20;4.95;;;26.50;81.60;;;;;;5028480;28;20087;-67
2023/05/05 08:45:30;;;;;;;10.82;4.90;;;26.60;81.60;;;;;;5008251;28;20022;-67
2023/05/05 08:48:00;;;;;;;6.47;4.50;;;26.40;83.50;;;;;;5023646;28;20117;-69
2023/05/05 08:50:27;;;;;;;6.97;4.72;;;26.30;82.30;;;;;;5026420;28;20028;-68
2023/05/05 08:53:17;;;;;;;9.38;5.07;;;26.50;83.70;;;;;;5027236;28;20437;-68
2023/05/05 08:55:50;;;;;;;8.13;4.40;;;26.20;82.30;;;;;;5025850;28;20106;-68
2023/05/05 08:58:21;;;;;;;6.10;4.35;;;26.50;84.30;;;;;;5026898;28;20029;-67
2023/05/05 09:00:48;;;;;;;7.70;4.07;;;26.20;81.20;;;;;;5025038;28;20037;-68
2023/05/05 09:03:15;;;;;;;5.78;4.20;;;26.30;82.50;;;;;;5029368;28;20021;-67
2023/05/05 09:05:41;;;;;;;7.32;4.38;;;26.20;81.90;;;;;;5027962;28;20029;-69
2023/05/05 09:08:09;;;;;;;5.53;4.28;;;26.40;81.40;;;;;;5025995;28;20506;-68
2023/05/05 09:10:35;;;;;;;7.10;4.05;;;26.40;82.20;;;;;;5028715;28;20135;-68
2023/05/05 09:13:04;;;;;;;7.55;4.03;;;26.50;82.10;;;;;;5027401;28;20628;-68
2023/05/05 09:15:29;;;;;;;5.65;3.72;;;26.80;81.30;;;;;;5009438;28;20043;-66
2023/05/05 09:17:59;;;;;;;6.75;4.13;;;26.80;80.10;;;;;;5027067;28;20022;-68
2023/05/05 09:20:34;;;;;;;6.95;4.10;;;26.60;81.00;;;;;;5027396;28;20025;-69
2023/05/05 09:23:07;;;;;;;7.65;4.57;;;26.50;81.80;;;;;;5023674;28;20021;-69
2023/05/05 09:25:33;;;;;;;5.47;4.00;;;26.70;80.20;;;;;;5032419;28;20025;-68
2023/05/05 09:28:08;;;;;;;7.93;4.13;;;26.90;80.70;;;;;;5025216;28;20051;-66
2023/05/05 09:30:35;;;;;;;12.30;4.50;;;27.70;79.90;;;;;;5026123;28;20029;-69
2023/05/05 09:33:01;;;;;;;7.13;4.22;;;28.50;77.50;;;;;;5022463;28;20887;-68
2023/05/05 09:35:27;;;;;;;5.20;3.50;;;28.40;77.90;;;;;;5007630;28;20037;-69
2023/05/05 09:37:53;;;;;;;5.97;3.50;;;28.20;76.90;;;;;;5024159;28;20394;-68
2023/05/05 09:40:20;;;;;;;7.05;4.43;;;28.90;76.80;;;;;;5025258;28;20059;-68
2023/05/05 09:42:46;;;;;;;6.43;3.95;;;28.30;76.50;;;;;;5031554;28;20030;-68
2023/05/05 09:45:17;;;;;;;8.07;4.68;;;28.10;78.60;;;;;;5029524;28;20041;-65
2023/05/05 09:47:47;;;;;;;8.38;4.45;;;28.30;78.00;;;;;;5031476;28;20073;-66
2023/05/05 09:50:14;;;;;;;8.07;5.18;;;28.50;78.40;;;;;;5031589;28;20124;-65
2023/05/05 09:53:01;;;;;;;11.15;4.68;;;29.10;76.20;;;;;;5008789;28;20030;-65
2023/05/05 09:55:29;;;;;;;7.45;5.00;;;29.30;75.50;;;;;;5033176;28;20380;-65
2023/05/05 09:57:55;;;;;;;8.30;4.75;;;28.50;75.60;;;;;;5013128;28;20025;-68
2023/05/05 10:00:21;;;;;;;8.38;5.28;;;28.20;77.80;;;;;;5011277;28;20100;-68
2023/05/05 10:02:47;;;;;;;9.05;4.80;;;28.70;76.30;;;;;;5030088;28;20033;-66
2023/05/05 10:05:14;;;;;;;6.72;4.25;;;28.70;77.20;;;;;;5035689;28;20047;-67
2023/05/05 10:07:42;;;;;;;6.53;3.97;;;28.10;76.50;;;;;;5026612;28;20079;-67
2023/05/05 10:10:13;;;;;;;8.57;4.65;;;27.50;78.40;;;;;;5035858;28;20029;-68
2023/05/05 10:12:39;;;;;;;6.10;4.40;;;27.40;78.40;;;;;;5035393;28;20108;-67
2023/05/05 10:15:09;;;;;;;5.45;3.63;;;27.80;78.90;;;;;;5027315;28;20029;-68
2023/05/05 10:17:40;;;;;;;7.18;4.03;;;27.80;78.40;;;;;;5028415;28;20116;-66
2023/05/05 10:20:08;;;;;;;7.95;3.92;;;27.00;77.60;;;;;;5032721;28;20044;-68
2023/05/05 10:22:34;;;;;;;6.43;4.18;;;26.50;79.30;;;;;;5029618;28;20537;-68
2023/05/05 10:25:09;;;;;;;4.45;3.28;;;26.80;80.20;;;;;;5032284;28;20037;-68
2023/05/05 10:27:48;;;;;;;4.63;3.75;;;27.60;79.50;;;;;;5034640;28;20036;-69
2023/05/05 10:30:23;;;;;;;6.70;3.67;;;27.60;78.70;;;;;;5031229;28;20031;-68
2023/05/05 10:33:14;;;;;;;5.82;3.63;;;27.90;75.90;;;;;;5028673;28;20030;-67
2023/05/05 10:35:42;;;;;;;6.80;3.70;;;27.50;77.00;;;;;;5022929;28;20045;-67
2023/05/05 10:38:10;;;;;;;8.40;3.25;;;27.20;77.60;;;;;;5026256;28;20033;-66
2023/05/05 10:40:35;;;;;;;4.07;2.63;;;26.70;77.40;;;;;;5026768;28;20051;-68
2023/05/05 10:43:01;;;;;;;7.68;3.10;;;26.40;79.10;;;;;;5032699;28;20674;-69
2023/05/05 10:45:27;;;;;;;5.10;3.17;;;26.00;79.00;;;;;;5027694;28;20039;-69
2023/05/05 10:47:55;;;;;;;5.97;3.25;;;25.30;79.20;;;;;;5033424;28;20105;-68
2023/05/05 10:50:40;;;;;;;5.72;2.80;;;24.90;80.60;;;;;;5014284;28;20026;-68
2023/05/05 10:53:24;;;;;;;4.22;2.97;;;24.60;81.00;;;;;;5029871;28;20025;-68
2023/05/05 10:56:09;;;;;;;6.05;3.67;;;24.20;83.30;;;;;;5036733;28;20029;-68
2023/05/05 10:58:40;;;;;;;7.55;3.95;;;23.90;84.10;;;;;;5026096;28;20025;-68
2023/05/05 11:01:06;;;;;;;6.35;3.83;;;23.60;84.20;;;;;;5026515;28;20138;-68
2023/05/05 11:03:32;;;;;;;7.30;4.38;;;23.70;86.00;;;;;;5027899;28;20028;-68
2023/05/05 11:06:04;;;;;;;7.18;3.63;;;23.60;84.10;;;;;;5013015;28;20032;-67
2023/05/05 11:08:43;;;;;;;8.70;3.50;;;23.80;84.40;;;;;;5030445;28;21710;-68
2023/05/05 11:11:10;;;;;;;6.25;3.15;;;23.90;85.10;;;;;;5032724;28;20021;-68
2023/05/05 11:13:37;;;;;;;6.75;3.33;;;24.00;85.50;;;;;;5028408;28;20060;-69
2023/05/05 11:16:03;;;;;;;5.53;3.47;;;24.30;82.90;;;;;;5027964;28;20021;-67
2023/05/05 11:18:42;;;;;;;5.47;3.17;;;24.10;85.40;;;;;;5028727;28;20053;-67
2023/05/05 11:21:16;;;;;;;4.05;3.15;;;24.00;83.90;;;;;;5025158;28;20029;-66
2023/05/05 11:23:50;;;;;;;8.35;4.05;;;23.80;83.80;;;;;;5030642;28;20021;-68
2023/05/05 11:26:37;;;;;;;4.50;3.15;;;23.60;83.70;;;;;;5027237;28;20097;-67
2023/05/05 11:29:03;;;;;;;5.43;3.28;;;23.50;84.30;;;;;;5024957;28;20061;-67
2023/05/05 11:31:32;;;;;;;5.40;2.97;;;23.30;84.20;;;;;;5026909;28;20080;-67
2023/05/05 11:34:26;;;;;;;4.28;2.80;;;23.30;85.10;;;;;;5028072;28;20433;-67
2023/05/05 11:36:56;;;;;;;6.20;2.28;;;23.70;81.80;;;;;;5007827;28;20055;-67
2023/05/05 11:39:35;;;;;;;4.60;2.92;;;24.00;83.50;;;;;;5023489;28;20036;-69
2023/05/05 11:42:13;;;;;;;10.32;2.90;;;24.40;82.40;;;;;;5010112;28;21828;-67
2023/05/05 11:44:40;;;;;;;4.95;2.70;;;25.20;82.30;;;;;;5024480;28;20036;-67
2023/05/05 11:47:05;;;;;;;7.03;2.67;;;25.40;82.40;;;;;;5023743;28;20475;-67
2023/05/05 11:49:38;;;;;;;22.13;2.75;;;24.70;81.00;;;;;;5024087;28;20048;-67
2023/05/05 11:52:05;;;;;;;3.72;2.00;;;22.00;83.80;;;;;;5038375;28;20052;-66
2023/05/05 11:54:33;;;;;;;4.00;1.60;;;20.80;92.90;;;;;;5032083;28;20095;-67
2023/05/05 11:57:04;;;;;;;4.30;1.52;;;19.60;95.30;;;;;;5029590;28;21772;-66
2023/05/05 11:59:35;;;;;;;4.32;1.55;;;18.40;99.90;;;;;;5030644;28;20092;-67
2023/05/05 12:02:02;;;;;;;4.53;1.75;;;17.30;99.90;;;;;;5023811;28;20040;-67
2023/05/05 12:04:28;;;;;;;2.70;1.63;;;16.60;99.90;;;;;;5026627;28;20029;-67
2023/05/05 12:06:56;;;;;;;3.85;1.50;;;16.20;99.90;;;;;;5026432;28;20061;-67
2023/05/05 12:09:22;;;;;;;3.60;1.42;;;15.70;99.90;;;;;;5026100;28;20513;-67
2023/05/05 12:11:48;;;;;;;9.45;1.45;;;15.70;99.90;;;;;;5030991;28;20029;-66
2023/05/05 12:14:14;;;;;;;2.55;1.25;;;15.70;99.90;;;;;;5027295;28;20447;-67
2023/05/05 12:16:40;;;;;;;4.97;1.45;;;15.90;99.90;;;;;;5021733;28;20104;-67
2023/05/05 12:19:06;;;;;;;4.63;1.35;;;16.00;99.90;;;;;;5021780;28;20048;-67
2023/05/05 12:21:33;;;;;;;2.67;1.77;;;16.30;99.90;;;;;;5020248;28;20096;-67
2023/05/05 12:23:59;;;;;;;2.42;1.00;;;16.50;99.90;;;;;;5023775;28;20033;-68
2023/05/05 12:26:30;;;;;;;4.38;1.33;;;16.70;99.90;;;;;;5025992;28;20030;-67
2023/05/05 12:28:59;;;;;;;5.28;1.50;;;16.80;99.90;;;;;;5024495;28;20037;-67
2023/05/05 12:31:39;;;;;;;2.70;1.48;;;17.00;99.90;;;;;;5022909;28;20022;-67
2023/05/05 12:34:05;;;;;;;2.78;1.45;;;17.30;99.90;;;;;;5025668;28;20032;-67
2023/05/05 12:36:35;;;;;;;3.08;1.17;;;17.40;99.90;;;;;;5009114;28;20049;-68
2023/05/05 12:39:03;;;;;;;1.13;0.80;;;17.30;99.90;;;;;;5009056;28;20044;-66
2023/05/05 12:41:30;;;;;;;1.98;0.85;;;17.60;99.90;;;;;;5018793;28;20037;-67
2023/05/05 12:43:57;;;;;;;3.67;1.30;;;18.10;99.90;;;;;;5024178;28;20426;-67
2023/05/05 12:46:23;;;;;;;2.45;1.48;;;18.40;99.90;;;;;;5022032;28;20076;-66
2023/05/05 12:49:04;;;;;;;2.58;1.30;;;18.60;99.90;;;;;;5021356;28;20037;-67
2023/05/05 12:51:31;;;;;;;3.33;1.55;;;18.70;99.90;;;;;;5019992;28;20487;-68